Terminal Aerodrome Forecast
Issued by NWS

Home | Current Version | Previous Version | Text Only | Print | Product List | Glossary Off
Versions: 1 2 3 4 5 6 7 8 9 10 11 12 13 14 15 16 17 18 19 20

000
FTUS42 KMHX 282248 AAB
TAFOAJ
TAF AMD
KOAJ 282248Z 2823/2918 04007KT P6SM BKN050
     FM290700 03003KT 3SM BR BKN007 BKN070
     FM291330 02006KT P6SM BKN100
      AMD LTD TO CLD VIS AND WIND=

USA.gov is the U.S. government's official web portal to all federal, state and local government web resources and services.